Terminal Aerodrome Forecast
Issued by NWS

Home | Current Version | Previous Version | Text Only | Print | Product List | Glossary On
Versions: 1 2 3 4 5 6 7 8 9 10 11 12 13 14 15 16 17 18 19 20 21
000
FTUS42 KJAX 052056 AAB
TAFCRG
TAF AMD
KCRG 052056Z 0521/0618 24010KT P6SM VCTS SCT020CB BKN080
      TEMPO 0521/0522 VRB20G35KT 1SM +TSRA BKN020CB OVC050
     FM060200 19004KT P6SM SCT100 BKN200
     FM061400 25005KT P6SM SCT030 BKN250=

USA.gov is the U.S. government's official web portal to all federal, state and local government web resources and services.